Terminal Aerodrome Forecast
Issued by NWS

Home | Current Version | Previous Version | Text Only | Print | Product List | Glossary On
Versions: 1 2 3 4 5 6 7 8 9 10 11 12 13 14
524
FTUS44 KLZK 201137
TAFHRO
TAF
KHRO 201137Z 2012/2112 17009G16KT P6SM SCT025 BKN250
      TEMPO 2012/2015 BKN025
     FM201500 17014G22KT P6SM BKN035
     FM210200 16012G20KT P6SM OVC025
     FM210800 16012G20KT P6SM OVC015=

USA.gov is the U.S. government's official web portal to all federal, state and local government web resources and services.